YPADYMIA

Guest
Details From YPAD - Adelaide Intl
To YMIA - Mildura
Flight Number -
Tags generated
Created
Modified
Stats Distance 187 nm / 346 km
Max Altitude 19,700 ft / 6,005 m
Waypoints 4
Social Downloads 2
Likes 0
Share VATSIM

Download

Looking for another format? Having issues loading an existing format? Contact us
Advertisement - Login to hide

Notes

Basic altitude profile: - Ascent Rate: 2500ft/min - Ascent Speed: 250kts - Cruise Altitude: 35000ft - Cruise Speed: 420kts - Descent Rate: 1500ft/min - Descent Speed: 250kts Options: - Use NATs: yes - Use PACOTS: yes - Use low airways: yes - Use high airways: yes

Route

YPAD AD H247 PANKI YMIA

ID Type Via Altitude Latitude Longitude Leg Dist Tot Dist Heading (true) Name
O YPAD APT - 0 ft / 0 m -34.94744˚ 138.52985˚ - 0 nm - Adelaide Intl
AD VOR - 0 ft / 0 m -34.94695˚ 138.52444˚ 0 nm 0 nm 276° / 276° ADELAIDE VOR-DME
PANKI FIX H247 (AWY-LO) 19,700 ft / 6,005 m -34.97722˚ 140.34917˚ 89 nm 90 nm 92° / 91° -
O YMIA APT - 0 ft / 0 m -34.22949˚ 142.08634˚ 96 nm 187 nm 63° / 62° Mildura

Altitude Profile

Advertisement - Login to hide

Weather


0- 5 10 15 20 25 30 35+ Temperature / ° C

Clouds and Precipitation
Forecast for 2017-12-14 12:00 UTC. Updated an hour ago

Ground ~20,000 ft ~40,000 ft Winds

YPAD

Details ICAO YPAD (ADL)
Name Adelaide Intl
Region Australia
Timezone Australia/Adelaide (UTC+10.5)
Stats Elevation 20 ft / 6 m (AMSL)
Location -34.947439° 138.529850°
Runways 2
Magnetic Variation 7.927° E

METAR

YPAD 141030Z 20009KT CAVOK 19/13 Q1012 NOSIG

Decode

TAF

TAF YPAD 140503Z 1406/1512 22014KT CAVOK FM141000 16010KT CAVOK FM141800 VRB05KT CAVOK FM150000 23010KT CAVOK

Decode

Departure Runways

ID Width Length Bearing (true) Bearing (mag) Surface Threshold Offset Overrun Length
05 151 ft / 46 m 10,173 ft / 3,101 m 50.14° 42.21° Asphalt 518 ft / 158 m 0 ft / 0 m
12 151 ft / 46 m 5,414 ft / 1,650 m 123.61° 115.68° Asphalt 0 ft / 0 m 0 ft / 0 m
23 151 ft / 46 m 10,173 ft / 3,101 m 230.13° 222.20° Asphalt 0 ft / 0 m 203 ft / 62 m
30 151 ft / 46 m 5,414 ft / 1,650 m 303.60° 295.67° Asphalt 0 ft / 0 m 0 ft / 0 m

YMIA

Details ICAO YMIA (MQL)
Name Mildura
Region Australia
Timezone Australia/Melbourne (UTC+11.0)
Stats Elevation 166 ft / 51 m (AMSL)
Location -34.229489° 142.086345°
Runways 2
Magnetic Variation 9.251° E

METAR

YMIA 141000Z AUTO 21005KT 9999 // NCD 25/12 Q1009

Decode

TAF

Not found

Destination Runways

ID Width Length Bearing (true) Bearing (mag) Surface Threshold Offset Overrun Length
09 148 ft / 45 m 5,990 ft / 1,826 m 101.71° 92.46° Asphalt 0 ft / 0 m 0 ft / 0 m
18 98 ft / 30 m 3,739 ft / 1,140 m 185.00° 175.75° Asphalt 0 ft / 0 m 0 ft / 0 m
27 148 ft / 45 m 5,990 ft / 1,826 m 281.69° 272.44° Asphalt 0 ft / 0 m 0 ft / 0 m
36 98 ft / 30 m 3,739 ft / 1,140 m 5.00° 355.75° Asphalt 0 ft / 0 m 0 ft / 0 m

Popular Alternatives